createdAt,value
2019-05-18T00:00:10.024Z,27.93
2019-05-18T00:02:40.641Z,27.43
2019-05-18T00:05:11.412Z,27.27
2019-05-18T00:07:41.988Z,25.93
2019-05-18T00:10:13.690Z,26.57
2019-05-18T00:12:44.322Z,27.30
2019-05-18T00:15:15.708Z,27.37
2019-05-18T00:17:46.327Z,28.23
2019-05-18T00:20:17.333Z,26.97
2019-05-18T00:22:47.875Z,28.83
2019-05-18T00:25:18.371Z,28.07
2019-05-18T00:27:48.847Z,29.03
2019-05-18T00:30:19.459Z,29.40
2019-05-18T00:32:50.127Z,29.03
2019-05-18T00:35:20.707Z,28.97
2019-05-18T00:37:51.189Z,29.73
2019-05-18T00:40:21.666Z,30.47
2019-05-18T00:42:51.979Z,31.87
2019-05-18T00:45:22.513Z,32.17
2019-05-18T00:47:52.920Z,32.13
2019-05-18T00:50:23.797Z,31.57
2019-05-18T00:52:54.320Z,30.37
2019-05-18T00:55:24.727Z,30.03
2019-05-18T00:57:55.468Z,27.90
2019-05-18T01:00:25.928Z,30.87
2019-05-18T01:02:56.426Z,31.43
2019-05-18T01:05:27.037Z,31.23
2019-05-18T01:07:57.463Z,31.63
2019-05-18T01:10:28.139Z,32.40
2019-05-18T01:12:58.618Z,33.13
2019-05-18T01:15:29.089Z,32.73
2019-05-18T01:18:02.206Z,33.23
2019-05-18T01:20:31.826Z,34.53
2019-05-18T01:23:02.214Z,30.90
2019-05-18T01:25:32.829Z,34.83
2019-05-18T01:28:03.398Z,36.87
2019-05-18T01:30:33.878Z,37.93
2019-05-18T01:33:04.500Z,38.07
2019-05-18T01:35:35.196Z,42.33
2019-05-18T01:38:05.648Z,41.80
2019-05-18T01:40:36.136Z,41.30
2019-05-18T01:43:06.761Z,40.00
2019-05-18T01:45:37.423Z,42.27
2019-05-18T01:48:14.072Z,42.10
2019-05-18T01:50:40.380Z,42.30
2019-05-18T01:53:10.969Z,41.70
2019-05-18T01:55:41.377Z,42.27
2019-05-18T01:58:11.948Z,42.10
2019-05-18T02:00:42.616Z,42.90
2019-05-18T02:03:13.228Z,41.67
2019-05-18T02:05:43.806Z,44.00
2019-05-18T02:08:14.433Z,44.90
2019-05-18T02:10:44.979Z,42.93
2019-05-18T02:13:15.482Z,44.23
2019-05-18T02:15:46.004Z,43.97
2019-05-18T02:18:28.312Z,43.83
2019-05-18T02:20:48.712Z,42.83
2019-05-18T02:23:19.219Z,40.70
2019-05-18T02:25:49.669Z,40.37
2019-05-18T02:28:20.219Z,40.73
2019-05-18T02:30:50.710Z,38.33
2019-05-18T02:33:21.256Z,36.90
2019-05-18T02:35:51.984Z,38.23
2019-05-18T02:38:22.537Z,43.83
2019-05-18T02:40:52.980Z,45.47
2019-05-18T02:43:23.617Z,48.13
2019-05-18T02:45:54.368Z,48.27
2019-05-18T02:48:24.997Z,51.67
2019-05-18T02:50:55.579Z,52.97
2019-05-18T02:53:26.178Z,54.13
2019-05-18T02:55:56.777Z,54.70
2019-05-18T02:58:27.337Z,60.87
2019-05-18T03:00:57.895Z,59.97
2019-05-18T03:03:28.556Z,56.00
2019-05-18T03:05:59.171Z,57.73
2019-05-18T03:08:29.839Z,57.30
2019-05-18T03:11:00.510Z,60.20
2019-05-18T03:13:31.168Z,57.87
2019-05-18T03:16:01.817Z,60.17
2019-05-18T03:18:32.498Z,57.77
2019-05-18T03:21:03.168Z,56.63
2019-05-18T03:23:33.785Z,56.87
2019-05-18T03:26:04.489Z,57.40
2019-05-18T03:28:35.047Z,56.17
2019-05-18T03:31:05.861Z,55.60
2019-05-18T03:33:36.615Z,54.93
2019-05-18T03:36:07.202Z,54.27
2019-05-18T03:38:37.877Z,56.20
2019-05-18T03:41:08.447Z,56.43
2019-05-18T03:43:39.158Z,58.73
2019-05-18T03:46:09.841Z,59.27
2019-05-18T03:48:40.380Z,56.77
2019-05-18T03:51:11.105Z,56.20
2019-05-18T03:53:41.736Z,54.97
2019-05-18T03:56:12.213Z,49.07
2019-05-18T03:58:42.798Z,45.30
2019-05-18T04:01:13.358Z,49.13
2019-05-18T04:03:43.968Z,52.03
2019-05-18T04:06:14.548Z,53.07
2019-05-18T04:08:45.048Z,53.27
2019-05-18T04:11:15.598Z,53.73
2019-05-18T04:13:46.121Z,56.00
2019-05-18T04:16:16.757Z,54.50
2019-05-18T04:18:47.300Z,59.30
2019-05-18T04:21:17.899Z,58.03
2019-05-18T04:23:48.488Z,58.13
2019-05-18T04:26:19.086Z,56.07
2019-05-18T04:28:49.628Z,57.20
2019-05-18T04:31:20.201Z,54.27
2019-05-18T04:33:50.813Z,49.57
2019-05-18T04:36:21.626Z,46.30
2019-05-18T04:38:52.350Z,40.60
2019-05-18T04:41:22.902Z,36.07
2019-05-18T04:43:53.362Z,34.93
2019-05-18T04:46:23.908Z,32.50
2019-05-18T04:48:54.345Z,33.87
2019-05-18T04:51:25.162Z,31.33
2019-05-18T04:53:55.906Z,31.33
2019-05-18T04:56:26.511Z,30.23
2019-05-18T04:58:57.158Z,29.43
2019-05-18T05:01:27.671Z,30.23
2019-05-18T05:03:58.085Z,29.03
2019-05-18T05:06:28.647Z,30.30
2019-05-18T05:08:59.226Z,28.90
2019-05-18T05:11:29.837Z,28.50
2019-05-18T05:14:00.431Z,28.67
2019-05-18T05:16:31.204Z,28.80
2019-05-18T05:19:01.828Z,27.77
2019-05-18T05:21:32.871Z,29.10
2019-05-18T05:24:03.637Z,29.67
2019-05-18T05:26:34.297Z,27.47
2019-05-18T05:29:05.270Z,27.23
2019-05-18T05:31:36.057Z,26.10
2019-05-18T05:34:18.896Z,26.13
2019-05-18T05:36:50.809Z,24.17
2019-05-18T05:39:21.681Z,25.73
2019-05-18T05:41:52.342Z,23.87
2019-05-18T05:44:22.840Z,23.17
2019-05-18T05:46:53.551Z,23.17
2019-05-18T05:49:24.087Z,22.73
2019-05-18T05:51:54.717Z,22.73
2019-05-18T05:54:25.217Z,21.37
2019-05-18T05:56:55.883Z,21.13
2019-05-18T05:59:26.398Z,21.67
2019-05-18T06:01:57.043Z,20.90
2019-05-18T06:04:27.667Z,19.97
2019-05-18T06:06:58.293Z,19.67
2019-05-18T06:09:28.892Z,19.30
2019-05-18T06:11:59.469Z,19.03
2019-05-18T06:14:30.367Z,18.37
2019-05-18T06:17:00.913Z,15.90
2019-05-18T06:19:31.460Z,17.10
2019-05-18T06:22:02.030Z,17.33
2019-05-18T06:24:32.415Z,17.30
2019-05-18T06:27:03.130Z,16.43
2019-05-18T06:29:33.699Z,17.80
2019-05-18T06:32:04.319Z,16.53
2019-05-18T06:34:34.895Z,16.50
2019-05-18T06:37:05.519Z,14.70
2019-05-18T06:39:35.939Z,14.87
2019-05-18T06:42:06.626Z,15.67
2019-05-18T06:44:37.303Z,14.37
2019-05-18T06:47:07.850Z,14.40
2019-05-18T06:49:38.503Z,13.90
2019-05-18T06:52:09.079Z,12.87
2019-05-18T06:54:39.602Z,12.10
2019-05-18T06:57:11.330Z,12.00
2019-05-18T06:59:42.083Z,10.87
2019-05-18T07:02:12.610Z,10.67
2019-05-18T07:04:44.691Z,10.87
2019-05-18T07:07:15.332Z,11.17
2019-05-18T07:09:45.908Z,11.83
2019-05-18T07:12:16.451Z,12.50
2019-05-18T07:14:47.120Z,11.73
2019-05-18T07:17:17.659Z,11.80
2019-05-18T07:19:48.084Z,11.37
2019-05-18T07:22:18.731Z,11.63
2019-05-18T07:24:49.354Z,11.40
2019-05-18T07:27:19.811Z,11.97
2019-05-18T07:29:50.449Z,11.07
2019-05-18T07:32:21.049Z,10.50
2019-05-18T07:34:51.652Z,10.60
2019-05-18T07:37:22.103Z,11.60
2019-05-18T07:39:52.672Z,9.63
2019-05-18T07:42:23.162Z,8.90
2019-05-18T07:44:53.752Z,8.80
2019-05-18T07:47:24.351Z,9.73
2019-05-18T07:49:54.987Z,8.97
2019-05-18T07:52:25.692Z,9.50
2019-05-18T07:54:56.308Z,9.60
2019-05-18T07:57:27.011Z,9.93
2019-05-18T07:59:57.580Z,9.07
2019-05-18T08:02:28.371Z,9.63
2019-05-18T08:04:58.895Z,9.60
2019-05-18T08:07:29.437Z,8.47
2019-05-18T08:10:00.124Z,9.23
2019-05-18T08:12:30.558Z,8.77
2019-05-18T08:15:01.209Z,8.50
2019-05-18T08:17:31.857Z,8.47
2019-05-18T08:20:02.472Z,8.37
2019-05-18T08:22:33.121Z,7.70
2019-05-18T08:25:03.626Z,7.37
2019-05-18T08:27:34.134Z,6.77
2019-05-18T08:30:06.368Z,6.33
2019-05-18T08:32:37.136Z,7.10
2019-05-18T08:35:07.980Z,7.37
2019-05-18T08:37:38.538Z,6.70
2019-05-18T08:40:09.551Z,6.17
2019-05-18T08:42:40.125Z,6.73
2019-05-18T08:45:11.746Z,6.07
2019-05-18T08:47:42.832Z,6.73
2019-05-18T08:50:14.483Z,6.33
2019-05-18T08:52:45.107Z,7.20
2019-05-18T08:55:16.327Z,6.90
2019-05-18T08:57:46.882Z,6.40
2019-05-18T09:00:18.163Z,6.13
2019-05-18T09:02:48.807Z,7.00
2019-05-18T09:05:19.470Z,5.90
2019-05-18T09:07:50.026Z,7.00
2019-05-18T09:10:20.869Z,6.30
2019-05-18T09:12:51.463Z,6.83
2019-05-18T09:15:22.179Z,6.33
2019-05-18T09:17:52.766Z,6.30
2019-05-18T09:20:23.602Z,7.17
2019-05-18T09:22:54.090Z,6.60
2019-05-18T09:25:25.902Z,6.33
2019-05-18T09:27:56.358Z,6.63
2019-05-18T09:30:26.974Z,6.93
2019-05-18T09:32:57.503Z,6.37
2019-05-18T09:35:28.058Z,6.60
2019-05-18T09:37:58.646Z,6.20
2019-05-18T09:40:29.679Z,6.63
2019-05-18T09:43:00.177Z,6.03
2019-05-18T09:45:30.733Z,6.13
2019-05-18T09:48:01.283Z,6.70
2019-05-18T09:50:31.877Z,6.10
2019-05-18T09:53:02.579Z,5.97
2019-05-18T09:55:33.189Z,7.27
2019-05-18T09:58:03.808Z,6.60
2019-05-18T10:00:38.435Z,7.03
2019-05-18T10:03:06.778Z,7.47
2019-05-18T10:05:37.363Z,6.37
2019-05-18T10:08:07.998Z,6.53
2019-05-18T10:10:38.887Z,6.33
2019-05-18T10:13:09.369Z,6.77
2019-05-18T10:15:39.997Z,6.63
2019-05-18T10:18:10.634Z,7.07
2019-05-18T10:20:41.266Z,7.87
2019-05-18T10:23:13.812Z,8.13
2019-05-18T10:25:44.393Z,7.53
2019-05-18T10:28:14.978Z,7.20
2019-05-18T10:30:45.606Z,6.50
2019-05-18T10:33:16.214Z,7.10
2019-05-18T10:35:46.838Z,7.00
2019-05-18T10:38:17.485Z,7.60
2019-05-18T10:40:48.109Z,7.60
2019-05-18T10:43:18.646Z,7.73
2019-05-18T10:45:50.697Z,7.47
2019-05-18T10:48:21.305Z,8.60
2019-05-18T10:50:51.957Z,7.13
2019-05-18T10:53:28.783Z,7.17
2019-05-18T10:55:54.877Z,8.27
2019-05-18T10:58:25.423Z,7.73
2019-05-18T11:00:56.447Z,7.97
2019-05-18T11:03:27.093Z,8.30
2019-05-18T11:05:57.539Z,8.33
2019-05-18T11:08:28.152Z,8.00
2019-05-18T11:10:58.827Z,7.33
2019-05-18T11:13:29.447Z,7.43
2019-05-18T11:16:00.091Z,7.00
2019-05-18T11:18:30.807Z,7.57
2019-05-18T11:21:01.346Z,7.30
2019-05-18T11:23:43.381Z,6.13
2019-05-18T11:26:04.309Z,6.13
2019-05-18T11:28:34.901Z,6.70
2019-05-18T11:31:05.562Z,7.27
2019-05-18T11:33:36.123Z,6.83
2019-05-18T11:36:06.819Z,6.87
2019-05-18T11:38:37.522Z,5.73
2019-05-18T11:41:08.157Z,6.80
2019-05-18T11:43:39.511Z,6.30
2019-05-18T11:46:10.126Z,6.20
2019-05-18T11:48:40.763Z,5.47
2019-05-18T11:51:11.396Z,6.37
2019-05-18T11:53:41.984Z,6.87
2019-05-18T11:56:12.618Z,5.30
2019-05-18T11:58:43.261Z,6.50
2019-05-18T12:01:14.003Z,6.77
2019-05-18T12:03:44.638Z,6.23
2019-05-18T12:06:15.370Z,5.83
2019-05-18T12:08:45.953Z,6.50
2019-05-18T12:11:16.537Z,6.50
2019-05-18T12:13:47.229Z,6.40
2019-05-18T12:16:17.837Z,6.33
2019-05-18T12:18:48.549Z,6.03
2019-05-18T12:21:19.214Z,6.00
2019-05-18T12:23:49.846Z,6.90
2019-05-18T12:26:20.415Z,6.83
2019-05-18T12:28:51.391Z,5.73
2019-05-18T12:31:21.982Z,6.33
2019-05-18T12:33:52.607Z,6.97
2019-05-18T12:36:23.218Z,6.80
2019-05-18T12:38:53.772Z,6.53
2019-05-18T12:41:30.385Z,6.43
2019-05-18T12:44:01.063Z,6.73
2019-05-18T12:46:31.651Z,5.53
2019-05-18T12:49:02.395Z,6.17
2019-05-18T12:51:33.055Z,7.50
2019-05-18T12:54:03.600Z,6.23
2019-05-18T12:56:34.207Z,6.37
2019-05-18T12:59:04.840Z,5.77
2019-05-18T13:01:35.521Z,6.30
2019-05-18T13:04:06.115Z,7.63
2019-05-18T13:06:36.747Z,7.87
2019-05-18T13:09:08.297Z,6.60
2019-05-18T13:11:38.830Z,5.53
2019-05-18T13:14:09.677Z,6.87
2019-05-18T13:16:40.259Z,7.27
2019-05-18T13:19:10.856Z,6.50
2019-05-18T13:21:41.341Z,7.53
2019-05-18T13:24:12.016Z,7.10
2019-05-18T13:26:42.698Z,7.57
2019-05-18T13:29:13.377Z,6.70
2019-05-18T13:31:43.910Z,7.10
2019-05-18T13:34:14.398Z,6.93
2019-05-18T13:36:45.023Z,7.47
2019-05-18T13:39:15.691Z,6.90
2019-05-18T13:41:46.390Z,5.93
2019-05-18T13:44:16.962Z,6.20
2019-05-18T13:52:25.934Z,6.60
2019-05-18T13:55:03.873Z,7.73
2019-05-18T13:57:28.876Z,8.00
2019-05-18T13:59:59.462Z,7.50
2019-05-18T14:02:30.057Z,6.87
2019-05-18T14:05:00.680Z,7.10
2019-05-18T14:07:31.378Z,6.97
2019-05-18T14:10:01.985Z,6.67
2019-05-18T14:12:32.568Z,6.70
2019-05-18T14:15:03.217Z,6.97
2019-05-18T14:17:34.168Z,6.90
2019-05-18T14:20:05.059Z,6.90
2019-05-18T14:22:36.026Z,7.33
2019-05-18T14:25:18.665Z,7.53
2019-05-18T14:27:39.812Z,7.07
2019-05-18T14:30:10.987Z,7.00
2019-05-18T14:32:41.607Z,7.17
2019-05-18T14:35:12.211Z,6.60
2019-05-18T14:37:42.759Z,6.50
2019-05-18T14:40:13.652Z,6.77
2019-05-18T14:42:44.399Z,6.60
2019-05-18T14:45:15.563Z,6.77
2019-05-18T14:47:46.158Z,7.60
2019-05-18T14:50:18.958Z,6.73
2019-05-18T14:52:49.609Z,6.60
2019-05-18T14:55:32.872Z,6.27
2019-05-18T14:57:54.133Z,6.73
2019-05-18T15:00:24.792Z,7.13
2019-05-18T15:02:55.377Z,6.97
2019-05-18T15:05:26.257Z,6.10
2019-05-18T15:07:56.804Z,6.30
2019-05-18T15:10:27.382Z,6.30
2019-05-18T15:12:58.023Z,6.77
2019-05-18T15:15:28.648Z,5.77
2019-05-18T15:17:59.280Z,6.43
2019-05-18T15:20:29.997Z,6.23
2019-05-18T15:23:00.626Z,5.20
2019-05-18T15:25:31.157Z,5.80
2019-05-18T15:28:01.784Z,5.70
2019-05-18T15:30:32.318Z,6.67
2019-05-18T15:33:03.012Z,6.73
2019-05-18T15:35:33.551Z,6.40
2019-05-18T15:38:04.212Z,5.57
2019-05-18T15:40:34.960Z,6.30
2019-05-18T15:43:05.552Z,6.40
2019-05-18T15:45:36.297Z,5.90
2019-05-18T15:48:06.927Z,6.20
2019-05-18T15:50:37.516Z,6.67
2019-05-18T15:53:08.077Z,6.53
2019-05-18T15:55:38.666Z,5.80
2019-05-18T15:58:09.326Z,5.73
2019-05-18T16:00:39.988Z,6.57
2019-05-18T16:03:10.631Z,5.30
2019-05-18T16:05:41.197Z,5.57
2019-05-18T16:08:11.767Z,6.53
2019-05-18T16:10:42.441Z,5.77
2019-05-18T16:13:13.037Z,5.20
2019-05-18T16:15:43.599Z,6.67
2019-05-18T16:18:14.130Z,5.80
2019-05-18T16:20:44.744Z,5.37
2019-05-18T16:23:15.718Z,5.57
2019-05-18T16:25:46.706Z,5.33
2019-05-18T16:28:17.385Z,5.07
2019-05-18T16:30:47.863Z,4.80
2019-05-18T16:33:18.493Z,5.27
2019-05-18T16:35:49.081Z,5.30
2019-05-18T16:38:19.787Z,5.47
2019-05-18T16:40:50.410Z,4.87
2019-05-18T16:43:21.042Z,5.13
2019-05-18T16:45:51.672Z,5.10
2019-05-18T16:48:22.287Z,5.43
2019-05-18T16:50:52.866Z,4.73
2019-05-18T16:53:23.465Z,5.37
2019-05-18T16:55:54.024Z,5.20
2019-05-18T16:58:24.716Z,4.97
2019-05-18T17:00:55.227Z,5.23
2019-05-18T17:03:25.891Z,5.07
2019-05-18T17:05:56.916Z,4.93
2019-05-18T17:08:27.361Z,5.13
2019-05-18T17:10:57.997Z,5.20
2019-05-18T17:13:28.638Z,5.20
2019-05-18T17:15:59.271Z,5.03
2019-05-18T17:18:29.700Z,4.90
2019-05-18T17:21:00.778Z,5.07
2019-05-18T17:23:36.508Z,4.90
2019-05-18T17:26:52.879Z,5.13
2019-05-18T17:29:37.637Z,4.80
2019-05-18T17:32:19.995Z,5.10
2019-05-18T17:34:50.304Z,4.90
2019-05-18T17:37:20.927Z,4.60
2019-05-18T17:39:51.523Z,4.90
2019-05-18T17:42:22.124Z,5.40
2019-05-18T17:44:52.711Z,6.17
2019-05-18T17:47:23.608Z,5.23
2019-05-18T17:49:54.196Z,5.27
2019-05-18T17:52:24.902Z,5.10
2019-05-18T17:54:57.325Z,4.63
2019-05-18T17:57:27.982Z,5.40
2019-05-18T18:00:04.144Z,5.13
2019-05-18T18:02:34.797Z,4.50
2019-05-18T18:05:05.572Z,5.20
2019-05-18T18:07:36.152Z,5.07
2019-05-18T18:10:07.471Z,4.53
2019-05-18T18:12:38.144Z,5.20
2019-05-18T18:15:10.440Z,4.83
2019-05-18T18:17:40.987Z,5.20
2019-05-18T18:20:12.044Z,5.40
2019-05-18T18:22:42.786Z,4.80
2019-05-18T18:25:15.779Z,5.30
2019-05-18T18:27:46.698Z,5.17
2019-05-18T18:30:18.557Z,5.50
2019-05-18T18:32:49.094Z,5.50
2019-05-18T18:35:21.351Z,5.30
2019-05-18T18:37:52.046Z,5.10
2019-05-18T18:40:22.972Z,5.10
2019-05-18T18:42:53.878Z,5.20
2019-05-18T18:45:24.672Z,4.93
2019-05-18T18:47:56.888Z,5.60
2019-05-18T18:50:28.668Z,5.63
2019-05-18T18:52:59.290Z,6.23
2019-05-18T18:55:30.045Z,6.33
2019-05-18T18:58:01.707Z,6.33
2019-05-18T19:00:34.711Z,5.93
2019-05-18T19:03:05.359Z,6.20
2019-05-18T19:05:37.117Z,6.20
2019-05-18T19:08:12.301Z,7.33
2019-05-18T19:10:43.010Z,9.27
2019-05-18T19:13:15.258Z,9.30
2019-05-18T19:15:48.126Z,8.70
2019-05-18T19:18:23.247Z,8.30
2019-05-18T19:20:53.973Z,9.20
2019-05-18T19:23:24.687Z,10.37
2019-05-18T19:25:57.718Z,10.70
2019-05-18T19:28:31.597Z,12.90
2019-05-18T19:31:02.208Z,13.53
2019-05-18T19:33:37.837Z,12.97
2019-05-18T19:36:08.535Z,12.07
2019-05-18T19:38:41.627Z,12.57
2019-05-18T19:41:12.704Z,11.17
2019-05-18T19:43:45.363Z,10.93
2019-05-18T19:46:22.798Z,10.57
2019-05-18T19:48:56.947Z,11.00
2019-05-18T19:51:29.235Z,10.63
2019-05-18T19:53:59.933Z,10.03
2019-05-18T19:56:39.535Z,10.20
2019-05-18T19:59:05.815Z,9.70
2019-05-18T20:01:40.503Z,8.73
2019-05-18T20:04:13.303Z,9.53
2019-05-18T20:06:44.123Z,8.57
2019-05-18T20:09:16.089Z,8.97
2019-05-18T20:11:47.874Z,8.47
2019-05-18T20:14:22.641Z,8.67
2019-05-18T20:16:53.289Z,8.30
2019-05-18T20:19:38.218Z,8.27
2019-05-18T20:21:56.405Z,8.30
2019-05-18T20:24:27.037Z,9.47
2019-05-18T20:27:00.706Z,9.13
2019-05-18T20:29:31.430Z,9.57
2019-05-18T20:32:02.017Z,8.70
2019-05-18T20:34:36.065Z,8.27
2019-05-18T20:37:08.983Z,7.07
2019-05-18T20:39:42.197Z,7.27
2019-05-18T20:42:13.998Z,7.33
2019-05-18T20:44:46.577Z,6.87
2019-05-18T20:47:17.305Z,7.40
2019-05-18T20:49:47.997Z,7.50
2019-05-18T20:52:18.997Z,6.87
2019-05-18T20:54:50.778Z,6.90
2019-05-18T20:57:25.997Z,6.40
2019-05-18T20:59:56.604Z,6.90
2019-05-18T21:02:27.172Z,7.97
2019-05-18T21:04:58.288Z,8.00
2019-05-18T21:07:29.157Z,7.30
2019-05-18T21:09:59.856Z,7.23
2019-05-18T21:12:30.567Z,7.67
2019-05-18T21:15:01.308Z,7.50
2019-05-18T21:17:32.102Z,7.13
2019-05-18T21:20:02.846Z,7.30
2019-05-18T21:22:33.496Z,7.57
2019-05-18T21:25:04.278Z,8.37
2019-05-18T21:27:34.937Z,7.60
2019-05-18T21:30:06.117Z,7.33
2019-05-18T21:32:36.986Z,8.50
2019-05-18T21:35:08.709Z,8.53
2019-05-18T21:37:39.614Z,7.47
2019-05-18T21:40:11.131Z,8.60
2019-05-18T21:42:42.380Z,7.73
2019-05-18T21:45:13.611Z,7.97
2019-05-18T21:47:44.589Z,8.20
2019-05-18T21:50:36.948Z,8.10
2019-05-18T21:53:09.405Z,9.37
2019-05-18T21:56:01.783Z,8.30
2019-05-18T21:58:33.523Z,8.23
2019-05-18T22:01:04.447Z,7.50
2019-05-18T22:03:35.292Z,7.67
2019-05-18T22:06:06.629Z,8.33
2019-05-18T22:08:37.466Z,8.40
2019-05-18T22:11:08.361Z,8.50
2019-05-18T22:13:42.551Z,7.80
2019-05-18T22:16:14.655Z,8.37
2019-05-18T22:19:03.818Z,7.73
2019-05-18T22:21:44.369Z,8.47
2019-05-18T22:24:15.270Z,8.43
2019-05-18T22:26:45.923Z,8.17
2019-05-18T22:29:16.546Z,8.70
2019-05-18T22:31:47.246Z,8.30
2019-05-18T22:34:17.983Z,8.70
2019-05-18T22:36:48.693Z,8.40
2019-05-18T22:39:19.423Z,9.80
2019-05-18T22:41:50.020Z,9.53
2019-05-18T22:44:20.688Z,9.50
2019-05-18T22:46:51.317Z,9.30
2019-05-18T22:49:22.037Z,8.70
2019-05-18T22:51:52.931Z,9.20
2019-05-18T22:54:23.736Z,9.07
2019-05-18T22:56:54.365Z,8.90
2019-05-18T22:59:25.130Z,8.90
2019-05-18T23:01:55.812Z,9.27
2019-05-18T23:04:26.896Z,9.17
2019-05-18T23:06:57.584Z,9.73
2019-05-18T23:09:28.257Z,10.40
2019-05-18T23:11:58.822Z,10.63
2019-05-18T23:14:29.499Z,10.60
2019-05-18T23:17:00.113Z,11.43
2019-05-18T23:19:30.669Z,11.37
2019-05-18T23:22:01.360Z,11.00
2019-05-18T23:24:32.062Z,11.00
2019-05-18T23:27:02.846Z,12.03
2019-05-18T23:29:33.512Z,11.83
2019-05-18T23:32:04.125Z,11.47
2019-05-18T23:34:34.883Z,12.27
2019-05-18T23:37:05.613Z,12.17
2019-05-18T23:39:36.327Z,12.33
2019-05-18T23:42:06.921Z,11.97
2019-05-18T23:44:37.497Z,12.43
2019-05-18T23:47:08.270Z,12.23
2019-05-18T23:49:39.003Z,13.53
2019-05-18T23:52:09.916Z,12.87
2019-05-18T23:54:40.593Z,12.87
2019-05-18T23:57:11.263Z,13.17
2019-05-18T23:59:42.043Z,14.23
